sensor_id;sensor_type;location;lat;lon;timestamp;P1;durP1;ratioP1;P2;durP2;ratioP2
37321;SDS011;23697;48.684;9.032;2022-08-24T00:00:20;8.18;;;3.38;;
37321;SDS011;23697;48.684;9.032;2022-08-24T00:02:48;9.15;;;3.30;;
37321;SDS011;23697;48.684;9.032;2022-08-24T00:05:16;7.40;;;3.25;;
37321;SDS011;23697;48.684;9.032;2022-08-24T00:07:46;5.20;;;3.33;;
37321;SDS011;23697;48.684;9.032;2022-08-24T00:10:14;5.63;;;3.30;;
37321;SDS011;23697;48.684;9.032;2022-08-24T00:12:42;6.43;;;3.35;;
37321;SDS011;23697;48.684;9.032;2022-08-24T00:15:09;4.72;;;3.00;;
37321;SDS011;23697;48.684;9.032;2022-08-24T00:17:39;6.82;;;3.38;;
37321;SDS011;23697;48.684;9.032;2022-08-24T00:20:07;5.78;;;3.40;;
37321;SDS011;23697;48.684;9.032;2022-08-24T00:22:36;8.20;;;3.10;;
37321;SDS011;23697;48.684;9.032;2022-08-24T00:25:05;5.38;;;3.10;;
37321;SDS011;23697;48.684;9.032;2022-08-24T00:27:33;6.85;;;3.65;;
37321;SDS011;23697;48.684;9.032;2022-08-24T00:30:02;5.82;;;3.47;;
37321;SDS011;23697;48.684;9.032;2022-08-24T00:32:30;5.15;;;3.35;;
37321;SDS011;23697;48.684;9.032;2022-08-24T00:34:59;7.00;;;3.38;;
37321;SDS011;23697;48.684;9.032;2022-08-24T00:37:26;5.00;;;3.30;;
37321;SDS011;23697;48.684;9.032;2022-08-24T00:39:54;5.65;;;3.30;;
37321;SDS011;23697;48.684;9.032;2022-08-24T00:42:21;5.90;;;3.50;;
37321;SDS011;23697;48.684;9.032;2022-08-24T00:44:47;5.93;;;3.30;;
37321;SDS011;23697;48.684;9.032;2022-08-24T00:47:16;5.63;;;3.25;;
37321;SDS011;23697;48.684;9.032;2022-08-24T00:49:48;4.93;;;3.60;;
37321;SDS011;23697;48.684;9.032;2022-08-24T00:52:22;5.00;;;3.20;;
37321;SDS011;23697;48.684;9.032;2022-08-24T00:54:54;6.53;;;3.40;;
37321;SDS011;23697;48.684;9.032;2022-08-24T00:57:24;6.68;;;3.50;;
37321;SDS011;23697;48.684;9.032;2022-08-24T00:59:55;6.10;;;3.05;;
37321;SDS011;23697;48.684;9.032;2022-08-24T01:02:24;4.70;;;3.30;;
37321;SDS011;23697;48.684;9.032;2022-08-24T01:04:55;5.72;;;3.40;;
37321;SDS011;23697;48.684;9.032;2022-08-24T01:07:25;6.80;;;3.22;;
37321;SDS011;23697;48.684;9.032;2022-08-24T01:09:56;5.40;;;3.30;;
37321;SDS011;23697;48.684;9.032;2022-08-24T01:14:52;6.40;;;3.60;;
37321;SDS011;23697;48.684;9.032;2022-08-24T01:17:20;6.20;;;3.67;;
37321;SDS011;23697;48.684;9.032;2022-08-24T01:20:05;6.22;;;3.40;;
37321;SDS011;23697;48.684;9.032;2022-08-24T01:22:39;6.97;;;3.60;;
37321;SDS011;23697;48.684;9.032;2022-08-24T01:25:18;6.05;;;3.70;;
37321;SDS011;23697;48.684;9.032;2022-08-24T01:27:45;5.05;;;3.30;;
37321;SDS011;23697;48.684;9.032;2022-08-24T01:30:14;6.28;;;3.40;;
37321;SDS011;23697;48.684;9.032;2022-08-24T01:32:51;7.47;;;3.33;;
37321;SDS011;23697;48.684;9.032;2022-08-24T01:35:19;5.68;;;3.60;;
37321;SDS011;23697;48.684;9.032;2022-08-24T01:37:46;6.07;;;3.67;;
37321;SDS011;23697;48.684;9.032;2022-08-24T01:40:14;7.75;;;3.50;;
37321;SDS011;23697;48.684;9.032;2022-08-24T01:42:47;7.07;;;3.53;;
37321;SDS011;23697;48.684;9.032;2022-08-24T01:45:15;6.68;;;3.45;;
37321;SDS011;23697;48.684;9.032;2022-08-24T01:47:43;7.45;;;3.85;;
37321;SDS011;23697;48.684;9.032;2022-08-24T01:50:10;5.40;;;3.70;;
37321;SDS011;23697;48.684;9.032;2022-08-24T01:52:38;5.40;;;3.20;;
37321;SDS011;23697;48.684;9.032;2022-08-24T01:55:06;5.82;;;3.78;;
37321;SDS011;23697;48.684;9.032;2022-08-24T01:57:35;5.40;;;3.90;;
37321;SDS011;23697;48.684;9.032;2022-08-24T02:00:04;5.95;;;3.60;;
37321;SDS011;23697;48.684;9.032;2022-08-24T02:02:35;5.63;;;3.70;;
37321;SDS011;23697;48.684;9.032;2022-08-24T02:05:02;5.72;;;3.70;;
37321;SDS011;23697;48.684;9.032;2022-08-24T02:07:32;7.25;;;3.80;;
37321;SDS011;23697;48.684;9.032;2022-08-24T02:09:59;5.10;;;3.58;;
37321;SDS011;23697;48.684;9.032;2022-08-24T02:12:26;7.68;;;3.80;;
37321;SDS011;23697;48.684;9.032;2022-08-24T02:14:53;5.20;;;3.50;;
37321;SDS011;23697;48.684;9.032;2022-08-24T02:17:21;6.95;;;3.80;;
37321;SDS011;23697;48.684;9.032;2022-08-24T02:19:48;7.13;;;3.70;;
37321;SDS011;23697;48.684;9.032;2022-08-24T02:22:14;7.65;;;3.78;;
37321;SDS011;23697;48.684;9.032;2022-08-24T02:24:41;6.43;;;3.55;;
37321;SDS011;23697;48.684;9.032;2022-08-24T02:27:08;5.70;;;3.92;;
37321;SDS011;23697;48.684;9.032;2022-08-24T02:29:35;6.07;;;3.80;;
37321;SDS011;23697;48.684;9.032;2022-08-24T02:32:03;5.82;;;3.60;;
37321;SDS011;23697;48.684;9.032;2022-08-24T02:34:32;4.80;;;3.70;;
37321;SDS011;23697;48.684;9.032;2022-08-24T02:36:59;6.00;;;3.70;;
37321;SDS011;23697;48.684;9.032;2022-08-24T02:39:26;6.35;;;3.63;;
37321;SDS011;23697;48.684;9.032;2022-08-24T02:41:53;5.35;;;3.72;;
37321;SDS011;23697;48.684;9.032;2022-08-24T02:44:20;6.88;;;3.53;;
37321;SDS011;23697;48.684;9.032;2022-08-24T02:46:47;5.45;;;3.50;;
37321;SDS011;23697;48.684;9.032;2022-08-24T02:49:14;87.15;;;78.70;;
37321;SDS011;23697;48.684;9.032;2022-08-24T02:51:44;6.07;;;3.63;;
37321;SDS011;23697;48.684;9.032;2022-08-24T02:54:13;8.55;;;3.40;;
37321;SDS011;23697;48.684;9.032;2022-08-24T02:56:41;6.55;;;3.80;;
37321;SDS011;23697;48.684;9.032;2022-08-24T02:59:08;7.75;;;4.00;;
37321;SDS011;23697;48.684;9.032;2022-08-24T03:01:36;7.32;;;3.55;;
37321;SDS011;23697;48.684;9.032;2022-08-24T03:04:03;8.15;;;3.88;;
37321;SDS011;23697;48.684;9.032;2022-08-24T03:06:30;6.28;;;3.80;;
37321;SDS011;23697;48.684;9.032;2022-08-24T03:08:59;5.72;;;3.90;;
37321;SDS011;23697;48.684;9.032;2022-08-24T03:11:25;6.20;;;3.67;;
37321;SDS011;23697;48.684;9.032;2022-08-24T03:13:53;27.75;;;19.58;;
37321;SDS011;23697;48.684;9.032;2022-08-24T03:16:20;5.13;;;3.45;;
37321;SDS011;23697;48.684;9.032;2022-08-24T03:18:46;70.00;;;30.45;;
37321;SDS011;23697;48.684;9.032;2022-08-24T03:21:13;5.15;;;3.40;;
37321;SDS011;23697;48.684;9.032;2022-08-24T03:23:41;70.78;;;8.75;;
37321;SDS011;23697;48.684;9.032;2022-08-24T03:26:09;9.55;;;4.18;;
37321;SDS011;23697;48.684;9.032;2022-08-24T03:28:37;5.65;;;3.70;;
37321;SDS011;23697;48.684;9.032;2022-08-24T03:31:04;4.95;;;3.40;;
37321;SDS011;23697;48.684;9.032;2022-08-24T03:33:31;6.05;;;4.55;;
37321;SDS011;23697;48.684;9.032;2022-08-24T03:35:58;7.40;;;3.85;;
37321;SDS011;23697;48.684;9.032;2022-08-24T03:38:25;7.40;;;3.85;;
37321;SDS011;23697;48.684;9.032;2022-08-24T03:40:52;5.68;;;4.00;;
37321;SDS011;23697;48.684;9.032;2022-08-24T03:43:21;6.90;;;4.07;;
37321;SDS011;23697;48.684;9.032;2022-08-24T03:46:06;5.97;;;3.75;;
37321;SDS011;23697;48.684;9.032;2022-08-24T03:48:33;6.78;;;4.10;;
37321;SDS011;23697;48.684;9.032;2022-08-24T03:51:00;6.43;;;3.80;;
37321;SDS011;23697;48.684;9.032;2022-08-24T03:53:28;6.00;;;3.67;;
37321;SDS011;23697;48.684;9.032;2022-08-24T03:55:55;7.57;;;3.90;;
37321;SDS011;23697;48.684;9.032;2022-08-24T03:58:23;4.85;;;3.78;;
37321;SDS011;23697;48.684;9.032;2022-08-24T04:00:52;7.18;;;3.53;;
37321;SDS011;23697;48.684;9.032;2022-08-24T04:03:19;5.90;;;3.72;;
37321;SDS011;23697;48.684;9.032;2022-08-24T04:05:46;4.95;;;3.65;;
37321;SDS011;23697;48.684;9.032;2022-08-24T04:08:13;5.32;;;3.78;;
37321;SDS011;23697;48.684;9.032;2022-08-24T04:10:42;7.78;;;3.88;;
37321;SDS011;23697;48.684;9.032;2022-08-24T04:13:09;5.80;;;3.37;;
37321;SDS011;23697;48.684;9.032;2022-08-24T04:15:39;6.30;;;3.80;;
37321;SDS011;23697;48.684;9.032;2022-08-24T04:18:07;5.78;;;3.60;;
37321;SDS011;23697;48.684;9.032;2022-08-24T04:20:36;6.75;;;3.85;;
37321;SDS011;23697;48.684;9.032;2022-08-24T04:23:05;12.00;;;4.18;;
37321;SDS011;23697;48.684;9.032;2022-08-24T04:25:40;6.15;;;3.90;;
37321;SDS011;23697;48.684;9.032;2022-08-24T04:28:08;7.03;;;4.15;;
37321;SDS011;23697;48.684;9.032;2022-08-24T04:30:39;6.55;;;4.32;;
37321;SDS011;23697;48.684;9.032;2022-08-24T04:33:07;6.28;;;4.00;;
37321;SDS011;23697;48.684;9.032;2022-08-24T04:35:36;5.90;;;4.20;;
37321;SDS011;23697;48.684;9.032;2022-08-24T04:38:03;5.65;;;4.15;;
37321;SDS011;23697;48.684;9.032;2022-08-24T04:40:31;7.97;;;4.40;;
37321;SDS011;23697;48.684;9.032;2022-08-24T04:42:58;7.05;;;4.78;;
37321;SDS011;23697;48.684;9.032;2022-08-24T04:45:25;7.03;;;4.47;;
37321;SDS011;23697;48.684;9.032;2022-08-24T04:47:54;6.55;;;4.32;;
37321;SDS011;23697;48.684;9.032;2022-08-24T04:50:21;5.55;;;4.07;;
37321;SDS011;23697;48.684;9.032;2022-08-24T04:52:48;8.10;;;4.00;;
37321;SDS011;23697;48.684;9.032;2022-08-24T04:55:15;7.97;;;4.00;;
37321;SDS011;23697;48.684;9.032;2022-08-24T04:57:43;5.82;;;4.03;;
37321;SDS011;23697;48.684;9.032;2022-08-24T05:00:10;7.70;;;4.13;;
37321;SDS011;23697;48.684;9.032;2022-08-24T05:02:37;11.88;;;4.43;;
37321;SDS011;23697;48.684;9.032;2022-08-24T05:05:07;7.50;;;4.13;;
37321;SDS011;23697;48.684;9.032;2022-08-24T05:07:35;9.75;;;4.55;;
37321;SDS011;23697;48.684;9.032;2022-08-24T05:10:03;5.47;;;3.97;;
37321;SDS011;23697;48.684;9.032;2022-08-24T05:12:31;8.48;;;4.20;;
37321;SDS011;23697;48.684;9.032;2022-08-24T05:14:58;6.82;;;4.38;;
37321;SDS011;23697;48.684;9.032;2022-08-24T05:17:26;10.30;;;4.50;;
37321;SDS011;23697;48.684;9.032;2022-08-24T05:19:53;10.10;;;4.25;;
37321;SDS011;23697;48.684;9.032;2022-08-24T05:22:21;10.82;;;4.43;;
37321;SDS011;23697;48.684;9.032;2022-08-24T05:24:48;7.18;;;4.30;;
37321;SDS011;23697;48.684;9.032;2022-08-24T05:27:16;9.20;;;4.40;;
37321;SDS011;23697;48.684;9.032;2022-08-24T05:29:43;9.40;;;4.55;;
37321;SDS011;23697;48.684;9.032;2022-08-24T05:32:10;19.90;;;4.80;;
37321;SDS011;23697;48.684;9.032;2022-08-24T05:34:37;16.10;;;4.80;;
37321;SDS011;23697;48.684;9.032;2022-08-24T05:37:04;10.15;;;4.20;;
37321;SDS011;23697;48.684;9.032;2022-08-24T05:39:32;13.07;;;4.40;;
37321;SDS011;23697;48.684;9.032;2022-08-24T05:41:59;8.05;;;4.28;;
37321;SDS011;23697;48.684;9.032;2022-08-24T05:44:27;12.95;;;4.65;;
37321;SDS011;23697;48.684;9.032;2022-08-24T05:46:55;5.57;;;4.40;;
37321;SDS011;23697;48.684;9.032;2022-08-24T05:49:23;7.97;;;4.25;;
37321;SDS011;23697;48.684;9.032;2022-08-24T05:51:50;7.63;;;4.60;;
37321;SDS011;23697;48.684;9.032;2022-08-24T05:54:17;7.63;;;4.20;;
37321;SDS011;23697;48.684;9.032;2022-08-24T05:56:46;6.10;;;4.40;;
37321;SDS011;23697;48.684;9.032;2022-08-24T05:59:13;6.80;;;4.55;;
37321;SDS011;23697;48.684;9.032;2022-08-24T06:01:43;6.18;;;4.53;;
37321;SDS011;23697;48.684;9.032;2022-08-24T06:04:09;9.95;;;4.95;;
37321;SDS011;23697;48.684;9.032;2022-08-24T06:06:36;8.45;;;5.40;;
37321;SDS011;23697;48.684;9.032;2022-08-24T06:09:04;13.07;;;4.80;;
37321;SDS011;23697;48.684;9.032;2022-08-24T06:11:32;9.20;;;4.53;;
37321;SDS011;23697;48.684;9.032;2022-08-24T06:14:02;8.18;;;4.55;;
37321;SDS011;23697;48.684;9.032;2022-08-24T06:16:32;8.40;;;4.88;;
37321;SDS011;23697;48.684;9.032;2022-08-24T06:18:59;7.93;;;4.57;;
37321;SDS011;23697;48.684;9.032;2022-08-24T06:21:26;11.15;;;5.10;;
37321;SDS011;23697;48.684;9.032;2022-08-24T06:23:54;8.65;;;4.72;;
37321;SDS011;23697;48.684;9.032;2022-08-24T06:26:21;7.38;;;4.90;;
37321;SDS011;23697;48.684;9.032;2022-08-24T06:29:07;9.15;;;5.00;;
37321;SDS011;23697;48.684;9.032;2022-08-24T06:31:57;9.93;;;5.32;;
37321;SDS011;23697;48.684;9.032;2022-08-24T06:34:24;10.02;;;5.07;;
37321;SDS011;23697;48.684;9.032;2022-08-24T06:36:51;9.23;;;5.47;;
37321;SDS011;23697;48.684;9.032;2022-08-24T06:39:18;8.82;;;4.90;;
37321;SDS011;23697;48.684;9.032;2022-08-24T06:41:45;11.80;;;5.00;;
37321;SDS011;23697;48.684;9.032;2022-08-24T06:44:13;14.80;;;5.20;;
37321;SDS011;23697;48.684;9.032;2022-08-24T06:46:40;10.48;;;5.40;;
37321;SDS011;23697;48.684;9.032;2022-08-24T06:49:07;11.10;;;4.88;;
37321;SDS011;23697;48.684;9.032;2022-08-24T06:51:34;11.45;;;5.00;;
37321;SDS011;23697;48.684;9.032;2022-08-24T06:54:02;8.57;;;5.00;;
37321;SDS011;23697;48.684;9.032;2022-08-24T06:56:29;13.00;;;4.90;;
37321;SDS011;23697;48.684;9.032;2022-08-24T06:58:59;9.82;;;4.80;;
37321;SDS011;23697;48.684;9.032;2022-08-24T07:01:29;11.05;;;5.10;;
37321;SDS011;23697;48.684;9.032;2022-08-24T07:03:56;10.82;;;4.80;;
37321;SDS011;23697;48.684;9.032;2022-08-24T07:06:23;8.02;;;4.55;;
37321;SDS011;23697;48.684;9.032;2022-08-24T07:08:50;12.80;;;4.75;;
37321;SDS011;23697;48.684;9.032;2022-08-24T07:11:18;15.07;;;5.00;;
37321;SDS011;23697;48.684;9.032;2022-08-24T07:13:46;10.63;;;4.72;;
37321;SDS011;23697;48.684;9.032;2022-08-24T07:16:14;12.15;;;5.22;;
37321;SDS011;23697;48.684;9.032;2022-08-24T07:18:43;13.98;;;5.03;;
37321;SDS011;23697;48.684;9.032;2022-08-24T07:21:10;13.30;;;4.60;;
37321;SDS011;23697;48.684;9.032;2022-08-24T07:23:37;12.95;;;4.50;;
37321;SDS011;23697;48.684;9.032;2022-08-24T07:26:04;9.40;;;4.43;;
37321;SDS011;23697;48.684;9.032;2022-08-24T07:28:34;10.02;;;4.18;;
37321;SDS011;23697;48.684;9.032;2022-08-24T07:31:03;11.10;;;4.07;;
37321;SDS011;23697;48.684;9.032;2022-08-24T07:46:55;9.75;;;3.60;;
37321;SDS011;23697;48.684;9.032;2022-08-24T07:49:39;8.97;;;3.60;;
37321;SDS011;23697;48.684;9.032;2022-08-24T07:52:43;9.13;;;3.33;;
37321;SDS011;23697;48.684;9.032;2022-08-24T07:55:16;8.02;;;3.60;;
37321;SDS011;23697;48.684;9.032;2022-08-24T07:57:43;10.18;;;3.22;;
37321;SDS011;23697;48.684;9.032;2022-08-24T08:00:11;9.48;;;3.50;;
37321;SDS011;23697;48.684;9.032;2022-08-24T08:02:43;8.93;;;3.40;;
37321;SDS011;23697;48.684;9.032;2022-08-24T08:05:13;7.82;;;3.00;;
37321;SDS011;23697;48.684;9.032;2022-08-24T08:08:08;7.43;;;3.00;;
37321;SDS011;23697;48.684;9.032;2022-08-24T08:10:44;6.88;;;2.75;;
37321;SDS011;23697;48.684;9.032;2022-08-24T08:13:16;8.65;;;3.80;;
37321;SDS011;23697;48.684;9.032;2022-08-24T08:15:43;7.38;;;3.70;;
37321;SDS011;23697;48.684;9.032;2022-08-24T08:18:50;6.75;;;3.33;;
37321;SDS011;23697;48.684;9.032;2022-08-24T08:21:17;5.68;;;2.60;;
37321;SDS011;23697;48.684;9.032;2022-08-24T08:24:11;9.13;;;2.83;;
37321;SDS011;23697;48.684;9.032;2022-08-24T08:26:51;4.40;;;2.47;;
37321;SDS011;23697;48.684;9.032;2022-08-24T08:29:34;5.75;;;2.60;;
37321;SDS011;23697;48.684;9.032;2022-08-24T08:32:42;7.50;;;2.67;;
37321;SDS011;23697;48.684;9.032;2022-08-24T08:38:16;6.35;;;2.92;;
37321;SDS011;23697;48.684;9.032;2022-08-24T08:40:49;7.70;;;3.00;;
37321;SDS011;23697;48.684;9.032;2022-08-24T08:43:39;8.80;;;3.00;;
37321;SDS011;23697;48.684;9.032;2022-08-24T08:46:26;7.78;;;2.90;;
37321;SDS011;23697;48.684;9.032;2022-08-24T08:49:10;8.98;;;2.80;;
37321;SDS011;23697;48.684;9.032;2022-08-24T08:54:54;12.45;;;3.05;;
37321;SDS011;23697;48.684;9.032;2022-08-24T08:57:39;7.38;;;2.63;;
37321;SDS011;23697;48.684;9.032;2022-08-24T09:00:17;7.05;;;2.72;;
37321;SDS011;23697;48.684;9.032;2022-08-24T09:05:53;9.05;;;2.70;;
37321;SDS011;23697;48.684;9.032;2022-08-24T09:08:34;8.52;;;2.70;;
37321;SDS011;23697;48.684;9.032;2022-08-24T09:11:14;4.90;;;2.55;;
37321;SDS011;23697;48.684;9.032;2022-08-24T09:16:56;6.20;;;2.45;;
37321;SDS011;23697;48.684;9.032;2022-08-24T09:19:38;6.03;;;2.45;;
37321;SDS011;23697;48.684;9.032;2022-08-24T09:22:20;5.60;;;2.40;;
37321;SDS011;23697;48.684;9.032;2022-08-24T09:27:45;4.90;;;2.35;;
37321;SDS011;23697;48.684;9.032;2022-08-24T09:32:58;6.85;;;2.70;;
37321;SDS011;23697;48.684;9.032;2022-08-24T09:35:36;5.38;;;2.15;;
37321;SDS011;23697;48.684;9.032;2022-08-24T09:38:23;6.28;;;2.10;;
37321;SDS011;23697;48.684;9.032;2022-08-24T09:41:14;6.25;;;2.40;;
37321;SDS011;23697;48.684;9.032;2022-08-24T09:44:08;3.30;;;1.90;;
37321;SDS011;23697;48.684;9.032;2022-08-24T09:59:08;3.83;;;1.90;;
37321;SDS011;23697;48.684;9.032;2022-08-24T10:02:11;209.27;;;9.63;;
37321;SDS011;23697;48.684;9.032;2022-08-24T10:04:55;2.17;;;1.30;;
37321;SDS011;23697;48.684;9.032;2022-08-24T10:07:35;2.75;;;1.40;;
37321;SDS011;23697;48.684;9.032;2022-08-24T10:10:12;3.40;;;1.40;;
37321;SDS011;23697;48.684;9.032;2022-08-24T10:12:51;3.95;;;1.48;;
37321;SDS011;23697;48.684;9.032;2022-08-24T10:15:28;2.33;;;1.23;;
37321;SDS011;23697;48.684;9.032;2022-08-24T10:18:09;3.63;;;1.60;;
37321;SDS011;23697;48.684;9.032;2022-08-24T10:21:02;4.18;;;1.80;;
37321;SDS011;23697;48.684;9.032;2022-08-24T10:23:44;2.55;;;1.85;;
37321;SDS011;23697;48.684;9.032;2022-08-24T10:26:25;5.75;;;2.17;;
37321;SDS011;23697;48.684;9.032;2022-08-24T10:29:08;5.18;;;2.05;;
37321;SDS011;23697;48.684;9.032;2022-08-24T10:31:49;3.35;;;2.00;;
37321;SDS011;23697;48.684;9.032;2022-08-24T10:34:33;4.88;;;2.17;;
37321;SDS011;23697;48.684;9.032;2022-08-24T10:37:16;3.88;;;1.30;;
37321;SDS011;23697;48.684;9.032;2022-08-24T10:40:03;2.47;;;1.58;;
37321;SDS011;23697;48.684;9.032;2022-08-24T10:43:07;2.70;;;1.60;;
37321;SDS011;23697;48.684;9.032;2022-08-24T10:49:09;3.35;;;1.48;;
37321;SDS011;23697;48.684;9.032;2022-08-24T10:55:10;2.00;;;1.60;;
37321;SDS011;23697;48.684;9.032;2022-08-24T10:57:42;3.15;;;1.50;;
37321;SDS011;23697;48.684;9.032;2022-08-24T11:00:20;3.05;;;1.92;;
37321;SDS011;23697;48.684;9.032;2022-08-24T11:06:18;4.13;;;1.80;;
37321;SDS011;23697;48.684;9.032;2022-08-24T11:08:50;4.75;;;1.50;;
37321;SDS011;23697;48.684;9.032;2022-08-24T11:11:23;3.67;;;1.60;;
37321;SDS011;23697;48.684;9.032;2022-08-24T11:13:53;2.67;;;1.60;;
37321;SDS011;23697;48.684;9.032;2022-08-24T11:16:25;2.15;;;1.60;;
37321;SDS011;23697;48.684;9.032;2022-08-24T11:18:56;1.75;;;1.40;;
37321;SDS011;23697;48.684;9.032;2022-08-24T11:21:36;2.47;;;1.50;;
37321;SDS011;23697;48.684;9.032;2022-08-24T11:24:28;2.65;;;1.60;;
37321;SDS011;23697;48.684;9.032;2022-08-24T11:32:35;2.70;;;1.63;;
37321;SDS011;23697;48.684;9.032;2022-08-24T11:35:05;2.88;;;1.80;;
37321;SDS011;23697;48.684;9.032;2022-08-24T11:37:41;2.28;;;1.63;;
37321;SDS011;23697;48.684;9.032;2022-08-24T11:40:09;1.58;;;1.33;;
37321;SDS011;23697;48.684;9.032;2022-08-24T11:42:41;1999.90;;;999.90;;
37321;SDS011;23697;48.684;9.032;2022-08-24T11:45:19;1999.90;;;999.90;;
37321;SDS011;23697;48.684;9.032;2022-08-24T11:48:00;1999.90;;;999.90;;
37321;SDS011;23697;48.684;9.032;2022-08-24T11:50:35;1999.90;;;999.90;;
37321;SDS011;23697;48.684;9.032;2022-08-24T11:53:12;1999.90;;;999.90;;
37321;SDS011;23697;48.684;9.032;2022-08-24T11:55:46;1999.90;;;999.90;;
37321;SDS011;23697;48.684;9.032;2022-08-24T11:58:22;1999.90;;;999.90;;
37321;SDS011;23697;48.684;9.032;2022-08-24T12:01:04;1999.90;;;999.90;;
37321;SDS011;23697;48.684;9.032;2022-08-24T12:03:39;1999.90;;;999.90;;
37321;SDS011;23697;48.684;9.032;2022-08-24T12:06:17;1999.90;;;999.90;;
37321;SDS011;23697;48.684;9.032;2022-08-24T12:08:57;4.88;;;1.45;;
37321;SDS011;23697;48.684;9.032;2022-08-24T12:11:31;364.83;;;81.68;;
37321;SDS011;23697;48.684;9.032;2022-08-24T12:14:07;2.97;;;1.60;;
37321;SDS011;23697;48.684;9.032;2022-08-24T12:16:42;2.08;;;1.40;;
37321;SDS011;23697;48.684;9.032;2022-08-24T12:19:16;3.47;;;1.80;;
37321;SDS011;23697;48.684;9.032;2022-08-24T12:21:48;2.80;;;1.50;;
37321;SDS011;23697;48.684;9.032;2022-08-24T12:24:21;3.40;;;1.65;;
37321;SDS011;23697;48.684;9.032;2022-08-24T12:26:57;2.63;;;1.40;;
37321;SDS011;23697;48.684;9.032;2022-08-24T12:29:28;1.55;;;1.20;;
37321;SDS011;23697;48.684;9.032;2022-08-24T12:32:00;3.83;;;1.38;;
37321;SDS011;23697;48.684;9.032;2022-08-24T12:34:34;10.23;;;1.60;;
37321;SDS011;23697;48.684;9.032;2022-08-24T12:37:10;1.45;;;1.35;;
37321;SDS011;23697;48.684;9.032;2022-08-24T12:39:43;1.60;;;1.20;;
37321;SDS011;23697;48.684;9.032;2022-08-24T12:42:15;3.45;;;1.38;;
37321;SDS011;23697;48.684;9.032;2022-08-24T12:44:46;24.40;;;3.92;;
37321;SDS011;23697;48.684;9.032;2022-08-24T12:47:19;1.33;;;1.20;;
37321;SDS011;23697;48.684;9.032;2022-08-24T12:49:51;42.28;;;2.20;;
37321;SDS011;23697;48.684;9.032;2022-08-24T12:55:55;2.15;;;1.35;;
37321;SDS011;23697;48.684;9.032;2022-08-24T12:58:48;12.00;;;5.93;;
37321;SDS011;23697;48.684;9.032;2022-08-24T13:01:22;241.02;;;74.53;;
37321;SDS011;23697;48.684;9.032;2022-08-24T13:04:01;1999.90;;;999.90;;
37321;SDS011;23697;48.684;9.032;2022-08-24T13:06:35;1999.90;;;999.90;;
37321;SDS011;23697;48.684;9.032;2022-08-24T13:09:06;1999.90;;;999.90;;
37321;SDS011;23697;48.684;9.032;2022-08-24T13:11:39;1999.90;;;999.90;;
37321;SDS011;23697;48.684;9.032;2022-08-24T13:14:14;1999.90;;;999.90;;
37321;SDS011;23697;48.684;9.032;2022-08-24T13:16:44;1999.90;;;999.90;;
37321;SDS011;23697;48.684;9.032;2022-08-24T13:19:31;329.10;;;68.65;;
37321;SDS011;23697;48.684;9.032;2022-08-24T13:25:17;2.35;;;1.63;;
37321;SDS011;23697;48.684;9.032;2022-08-24T13:30:56;3.63;;;1.75;;
37321;SDS011;23697;48.684;9.032;2022-08-24T13:33:32;2.00;;;1.58;;
37321;SDS011;23697;48.684;9.032;2022-08-24T13:36:05;2.33;;;1.50;;
37321;SDS011;23697;48.684;9.032;2022-08-24T13:39:05;2.35;;;1.50;;
37321;SDS011;23697;48.684;9.032;2022-08-24T13:41:43;1.73;;;1.25;;
37321;SDS011;23697;48.684;9.032;2022-08-24T13:47:30;2.35;;;1.60;;
37321;SDS011;23697;48.684;9.032;2022-08-24T13:50:10;3.95;;;1.67;;
37321;SDS011;23697;48.684;9.032;2022-08-24T13:52:55;4.50;;;1.65;;
37321;SDS011;23697;48.684;9.032;2022-08-24T13:55:41;3.60;;;1.83;;
37321;SDS011;23697;48.684;9.032;2022-08-24T13:58:18;3.50;;;1.67;;
37321;SDS011;23697;48.684;9.032;2022-08-24T14:00:51;2.95;;;1.70;;
37321;SDS011;23697;48.684;9.032;2022-08-24T14:03:30;2.70;;;1.70;;
37321;SDS011;23697;48.684;9.032;2022-08-24T14:06:30;3.60;;;1.70;;
37321;SDS011;23697;48.684;9.032;2022-08-24T14:09:08;1.67;;;1.52;;
37321;SDS011;23697;48.684;9.032;2022-08-24T14:15:06;2.60;;;1.60;;
37321;SDS011;23697;48.684;9.032;2022-08-24T14:17:40;2.85;;;1.50;;
37321;SDS011;23697;48.684;9.032;2022-08-24T14:20:30;1.83;;;1.40;;
37321;SDS011;23697;48.684;9.032;2022-08-24T14:23:20;2.22;;;1.60;;
37321;SDS011;23697;48.684;9.032;2022-08-24T14:34:51;3.55;;;1.48;;
37321;SDS011;23697;48.684;9.032;2022-08-24T14:37:47;2.30;;;1.50;;
37321;SDS011;23697;48.684;9.032;2022-08-24T14:40:22;2.88;;;1.50;;
37321;SDS011;23697;48.684;9.032;2022-08-24T14:42:57;3.97;;;1.70;;
37321;SDS011;23697;48.684;9.032;2022-08-24T14:45:32;3.92;;;1.60;;
37321;SDS011;23697;48.684;9.032;2022-08-24T14:48:10;2.65;;;1.50;;
37321;SDS011;23697;48.684;9.032;2022-08-24T14:50:47;2.83;;;1.50;;
37321;SDS011;23697;48.684;9.032;2022-08-24T14:53:28;4.88;;;1.70;;
37321;SDS011;23697;48.684;9.032;2022-08-24T14:56:12;2.45;;;1.52;;
37321;SDS011;23697;48.684;9.032;2022-08-24T14:58:48;6.95;;;3.80;;
37321;SDS011;23697;48.684;9.032;2022-08-24T15:01:31;2.40;;;1.70;;
37321;SDS011;23697;48.684;9.032;2022-08-24T15:04:20;2.85;;;1.50;;
37321;SDS011;23697;48.684;9.032;2022-08-24T15:07:01;2.17;;;1.50;;
37321;SDS011;23697;48.684;9.032;2022-08-24T15:09:50;2.88;;;1.60;;
37321;SDS011;23697;48.684;9.032;2022-08-24T15:12:22;4.43;;;1.70;;
37321;SDS011;23697;48.684;9.032;2022-08-24T15:14:57;3.72;;;1.40;;
37321;SDS011;23697;48.684;9.032;2022-08-24T15:17:35;3.45;;;1.70;;
37321;SDS011;23697;48.684;9.032;2022-08-24T15:20:08;3.22;;;1.50;;
37321;SDS011;23697;48.684;9.032;2022-08-24T15:22:46;3.03;;;1.60;;
37321;SDS011;23697;48.684;9.032;2022-08-24T15:25:18;2.45;;;1.63;;
37321;SDS011;23697;48.684;9.032;2022-08-24T15:27:57;3.55;;;1.70;;
37321;SDS011;23697;48.684;9.032;2022-08-24T15:30:26;3.45;;;1.80;;
37321;SDS011;23697;48.684;9.032;2022-08-24T15:35:29;3.08;;;1.70;;
37321;SDS011;23697;48.684;9.032;2022-08-24T15:40:48;4.38;;;1.80;;
37321;SDS011;23697;48.684;9.032;2022-08-24T15:43:17;2.90;;;1.90;;
37321;SDS011;23697;48.684;9.032;2022-08-24T15:45:46;3.15;;;1.92;;
37321;SDS011;23697;48.684;9.032;2022-08-24T15:48:16;3.47;;;1.80;;
37321;SDS011;23697;48.684;9.032;2022-08-24T15:50:48;2.53;;;1.80;;
37321;SDS011;23697;48.684;9.032;2022-08-24T15:53:34;3.63;;;1.90;;
37321;SDS011;23697;48.684;9.032;2022-08-24T15:59:04;3.80;;;2.00;;
37321;SDS011;23697;48.684;9.032;2022-08-24T16:01:34;5.55;;;2.03;;
37321;SDS011;23697;48.684;9.032;2022-08-24T16:07:04;4.45;;;2.00;;
37321;SDS011;23697;48.684;9.032;2022-08-24T16:09:34;3.13;;;2.10;;
37321;SDS011;23697;48.684;9.032;2022-08-24T16:12:04;5.43;;;2.05;;
37321;SDS011;23697;48.684;9.032;2022-08-24T16:14:36;3.67;;;2.20;;
37321;SDS011;23697;48.684;9.032;2022-08-24T16:19:48;3.42;;;2.10;;
37321;SDS011;23697;48.684;9.032;2022-08-24T16:22:24;2.97;;;1.88;;
37321;SDS011;23697;48.684;9.032;2022-08-24T16:25:08;3.22;;;2.00;;
37321;SDS011;23697;48.684;9.032;2022-08-24T16:27:52;4.50;;;2.15;;
37321;SDS011;23697;48.684;9.032;2022-08-24T16:32:53;2.70;;;1.88;;
37321;SDS011;23697;48.684;9.032;2022-08-24T16:35:23;3.28;;;2.28;;
37321;SDS011;23697;48.684;9.032;2022-08-24T16:37:50;3.08;;;1.92;;
37321;SDS011;23697;48.684;9.032;2022-08-24T16:43:14;5.20;;;2.15;;
37321;SDS011;23697;48.684;9.032;2022-08-24T16:45:41;3.53;;;2.20;;
37321;SDS011;23697;48.684;9.032;2022-08-24T16:48:08;4.30;;;2.25;;
37321;SDS011;23697;48.684;9.032;2022-08-24T16:50:35;3.58;;;2.10;;
37321;SDS011;23697;48.684;9.032;2022-08-24T16:53:02;2.60;;;1.95;;
37321;SDS011;23697;48.684;9.032;2022-08-24T16:55:32;3.75;;;2.20;;
37321;SDS011;23697;48.684;9.032;2022-08-24T17:00:27;3.80;;;2.00;;
37321;SDS011;23697;48.684;9.032;2022-08-24T17:02:54;2.42;;;2.00;;
37321;SDS011;23697;48.684;9.032;2022-08-24T17:05:21;4.35;;;2.00;;